sensor_id;sensor_type;location;lat;lon;timestamp;P1;durP1;ratioP1;P2;durP2;ratioP2
58878;SDS011;44660;42.664;23.266;2022-11-15T00:01:08;49.90;;;23.85;;
58878;SDS011;44660;42.664;23.266;2022-11-15T00:06:03;49.45;;;21.83;;
58878;SDS011;44660;42.664;23.266;2022-11-15T00:08:32;47.85;;;23.35;;
58878;SDS011;44660;42.664;23.266;2022-11-15T00:10:59;43.58;;;22.33;;
58878;SDS011;44660;42.664;23.266;2022-11-15T00:13:26;52.42;;;22.95;;
58878;SDS011;44660;42.664;23.266;2022-11-15T00:15:52;48.08;;;23.65;;
58878;SDS011;44660;42.664;23.266;2022-11-15T00:18:17;51.75;;;23.55;;
58878;SDS011;44660;42.664;23.266;2022-11-15T00:20:44;55.97;;;25.38;;
58878;SDS011;44660;42.664;23.266;2022-11-15T00:23:09;52.40;;;26.10;;
58878;SDS011;44660;42.664;23.266;2022-11-15T00:25:35;53.95;;;24.98;;
58878;SDS011;44660;42.664;23.266;2022-11-15T00:28:00;49.63;;;25.38;;
58878;SDS011;44660;42.664;23.266;2022-11-15T00:30:26;51.17;;;24.40;;
58878;SDS011;44660;42.664;23.266;2022-11-15T00:32:52;54.92;;;24.30;;
58878;SDS011;44660;42.664;23.266;2022-11-15T00:35:18;55.92;;;24.98;;
58878;SDS011;44660;42.664;23.266;2022-11-15T00:37:44;51.28;;;23.77;;
58878;SDS011;44660;42.664;23.266;2022-11-15T00:40:10;47.03;;;22.90;;
58878;SDS011;44660;42.664;23.266;2022-11-15T00:42:35;50.25;;;25.25;;
58878;SDS011;44660;42.664;23.266;2022-11-15T00:45:01;56.22;;;25.60;;
58878;SDS011;44660;42.664;23.266;2022-11-15T00:47:27;55.20;;;24.95;;
58878;SDS011;44660;42.664;23.266;2022-11-15T00:49:52;53.03;;;26.08;;
58878;SDS011;44660;42.664;23.266;2022-11-15T00:52:18;59.22;;;27.23;;
58878;SDS011;44660;42.664;23.266;2022-11-15T00:54:43;53.25;;;26.27;;
58878;SDS011;44660;42.664;23.266;2022-11-15T00:57:09;63.33;;;27.55;;
58878;SDS011;44660;42.664;23.266;2022-11-15T00:59:34;64.93;;;30.33;;
58878;SDS011;44660;42.664;23.266;2022-11-15T01:02:00;63.88;;;29.20;;
58878;SDS011;44660;42.664;23.266;2022-11-15T01:04:26;56.15;;;28.33;;
58878;SDS011;44660;42.664;23.266;2022-11-15T01:06:52;62.50;;;29.02;;
58878;SDS011;44660;42.664;23.266;2022-11-15T01:09:17;60.65;;;28.52;;
58878;SDS011;44660;42.664;23.266;2022-11-15T01:11:43;62.60;;;29.73;;
58878;SDS011;44660;42.664;23.266;2022-11-15T01:14:08;62.13;;;29.55;;
58878;SDS011;44660;42.664;23.266;2022-11-15T01:16:34;65.03;;;28.85;;
58878;SDS011;44660;42.664;23.266;2022-11-15T01:18:59;58.13;;;28.15;;
58878;SDS011;44660;42.664;23.266;2022-11-15T01:21:25;60.90;;;28.02;;
58878;SDS011;44660;42.664;23.266;2022-11-15T01:23:54;64.15;;;29.15;;
58878;SDS011;44660;42.664;23.266;2022-11-15T01:26:21;59.25;;;29.23;;
58878;SDS011;44660;42.664;23.266;2022-11-15T01:28:47;61.13;;;28.30;;
58878;SDS011;44660;42.664;23.266;2022-11-15T01:31:14;59.13;;;28.80;;
58878;SDS011;44660;42.664;23.266;2022-11-15T01:33:42;58.40;;;29.23;;
58878;SDS011;44660;42.664;23.266;2022-11-15T01:36:09;59.17;;;27.83;;
58878;SDS011;44660;42.664;23.266;2022-11-15T01:38:37;58.38;;;28.48;;
58878;SDS011;44660;42.664;23.266;2022-11-15T01:41:02;59.78;;;28.35;;
58878;SDS011;44660;42.664;23.266;2022-11-15T01:46:00;60.15;;;27.65;;
58878;SDS011;44660;42.664;23.266;2022-11-15T01:48:33;57.75;;;26.42;;
58878;SDS011;44660;42.664;23.266;2022-11-15T01:51:00;57.25;;;26.13;;
58878;SDS011;44660;42.664;23.266;2022-11-15T01:53:31;60.50;;;27.05;;
58878;SDS011;44660;42.664;23.266;2022-11-15T01:55:59;53.15;;;26.17;;
58878;SDS011;44660;42.664;23.266;2022-11-15T01:58:31;51.50;;;25.38;;
58878;SDS011;44660;42.664;23.266;2022-11-15T02:00:58;54.38;;;26.60;;
58878;SDS011;44660;42.664;23.266;2022-11-15T02:03:25;56.08;;;26.40;;
58878;SDS011;44660;42.664;23.266;2022-11-15T02:05:58;56.10;;;25.95;;
58878;SDS011;44660;42.664;23.266;2022-11-15T02:08:24;56.13;;;26.10;;
58878;SDS011;44660;42.664;23.266;2022-11-15T02:10:50;55.80;;;27.13;;
58878;SDS011;44660;42.664;23.266;2022-11-15T02:13:15;49.38;;;24.42;;
58878;SDS011;44660;42.664;23.266;2022-11-15T02:15:56;52.22;;;25.23;;
58878;SDS011;44660;42.664;23.266;2022-11-15T02:18:34;52.20;;;24.33;;
58878;SDS011;44660;42.664;23.266;2022-11-15T02:21:10;51.25;;;24.23;;
58878;SDS011;44660;42.664;23.266;2022-11-15T02:32:39;47.35;;;23.20;;
58878;SDS011;44660;42.664;23.266;2022-11-15T02:35:23;45.65;;;22.25;;
58878;SDS011;44660;42.664;23.266;2022-11-15T02:37:58;47.58;;;22.77;;
58878;SDS011;44660;42.664;23.266;2022-11-15T02:40:35;49.10;;;21.42;;
58878;SDS011;44660;42.664;23.266;2022-11-15T02:43:09;44.50;;;21.67;;
58878;SDS011;44660;42.664;23.266;2022-11-15T02:46:01;49.63;;;23.15;;
58878;SDS011;44660;42.664;23.266;2022-11-15T02:49:08;39.80;;;20.17;;
58878;SDS011;44660;42.664;23.266;2022-11-15T02:51:35;44.60;;;22.23;;
58878;SDS011;44660;42.664;23.266;2022-11-15T02:54:01;48.88;;;23.23;;
58878;SDS011;44660;42.664;23.266;2022-11-15T02:56:26;47.60;;;22.77;;
58878;SDS011;44660;42.664;23.266;2022-11-15T02:58:56;45.05;;;22.00;;
58878;SDS011;44660;42.664;23.266;2022-11-15T03:04:43;47.63;;;22.35;;
58878;SDS011;44660;42.664;23.266;2022-11-15T03:07:43;45.78;;;21.67;;
58878;SDS011;44660;42.664;23.266;2022-11-15T03:10:45;45.08;;;22.13;;
58878;SDS011;44660;42.664;23.266;2022-11-15T03:13:16;48.17;;;22.38;;
58878;SDS011;44660;42.664;23.266;2022-11-15T03:18:43;47.78;;;23.30;;
58878;SDS011;44660;42.664;23.266;2022-11-15T03:21:13;53.85;;;24.27;;
58878;SDS011;44660;42.664;23.266;2022-11-15T03:23:41;50.97;;;23.48;;
58878;SDS011;44660;42.664;23.266;2022-11-15T03:26:09;49.25;;;23.40;;
58878;SDS011;44660;42.664;23.266;2022-11-15T03:31:11;49.95;;;24.05;;
58878;SDS011;44660;42.664;23.266;2022-11-15T03:33:58;46.83;;;23.95;;
58878;SDS011;44660;42.664;23.266;2022-11-15T03:36:27;45.28;;;22.77;;
58878;SDS011;44660;42.664;23.266;2022-11-15T03:38:58;52.30;;;26.43;;
58878;SDS011;44660;42.664;23.266;2022-11-15T03:41:32;51.90;;;25.88;;
58878;SDS011;44660;42.664;23.266;2022-11-15T03:44:21;49.63;;;24.90;;
58878;SDS011;44660;42.664;23.266;2022-11-15T03:49:52;52.85;;;25.63;;
58878;SDS011;44660;42.664;23.266;2022-11-15T03:52:22;52.17;;;25.27;;
58878;SDS011;44660;42.664;23.266;2022-11-15T03:54:49;53.53;;;26.08;;
58878;SDS011;44660;42.664;23.266;2022-11-15T03:57:20;58.45;;;25.88;;
58878;SDS011;44660;42.664;23.266;2022-11-15T03:59:46;58.65;;;27.95;;
58878;SDS011;44660;42.664;23.266;2022-11-15T04:02:11;56.80;;;27.65;;
58878;SDS011;44660;42.664;23.266;2022-11-15T04:04:37;56.90;;;26.70;;
58878;SDS011;44660;42.664;23.266;2022-11-15T04:07:03;58.03;;;27.20;;
58878;SDS011;44660;42.664;23.266;2022-11-15T04:09:28;58.05;;;27.85;;
58878;SDS011;44660;42.664;23.266;2022-11-15T04:11:54;74.25;;;32.03;;
58878;SDS011;44660;42.664;23.266;2022-11-15T04:14:19;77.00;;;32.47;;
58878;SDS011;44660;42.664;23.266;2022-11-15T04:16:45;67.45;;;33.10;;
58878;SDS011;44660;42.664;23.266;2022-11-15T04:19:10;89.68;;;33.92;;
58878;SDS011;44660;42.664;23.266;2022-11-15T04:21:54;89.88;;;33.22;;
58878;SDS011;44660;42.664;23.266;2022-11-15T04:24:40;86.80;;;32.10;;
58878;SDS011;44660;42.664;23.266;2022-11-15T04:27:06;81.32;;;31.42;;
58878;SDS011;44660;42.664;23.266;2022-11-15T04:29:31;81.43;;;31.83;;
58878;SDS011;44660;42.664;23.266;2022-11-15T04:32:00;87.18;;;32.50;;
58878;SDS011;44660;42.664;23.266;2022-11-15T04:34:26;90.35;;;32.58;;
58878;SDS011;44660;42.664;23.266;2022-11-15T04:36:51;83.00;;;33.33;;
58878;SDS011;44660;42.664;23.266;2022-11-15T04:39:35;78.70;;;30.65;;
58878;SDS011;44660;42.664;23.266;2022-11-15T04:42:01;84.55;;;32.55;;
58878;SDS011;44660;42.664;23.266;2022-11-15T04:44:26;77.03;;;31.30;;
58878;SDS011;44660;42.664;23.266;2022-11-15T04:46:51;74.30;;;29.33;;
58878;SDS011;44660;42.664;23.266;2022-11-15T04:49:17;64.40;;;27.95;;
58878;SDS011;44660;42.664;23.266;2022-11-15T04:51:42;76.72;;;28.88;;
58878;SDS011;44660;42.664;23.266;2022-11-15T04:54:08;78.03;;;30.42;;
58878;SDS011;44660;42.664;23.266;2022-11-15T04:56:33;88.80;;;31.33;;
58878;SDS011;44660;42.664;23.266;2022-11-15T04:58:59;89.18;;;31.80;;
58878;SDS011;44660;42.664;23.266;2022-11-15T05:01:24;77.72;;;29.77;;
58878;SDS011;44660;42.664;23.266;2022-11-15T05:03:49;76.22;;;29.98;;
58878;SDS011;44660;42.664;23.266;2022-11-15T05:06:34;76.57;;;29.52;;
58878;SDS011;44660;42.664;23.266;2022-11-15T05:08:59;78.40;;;31.38;;
58878;SDS011;44660;42.664;23.266;2022-11-15T05:11:25;68.63;;;29.45;;
58878;SDS011;44660;42.664;23.266;2022-11-15T05:13:52;68.40;;;28.92;;
58878;SDS011;44660;42.664;23.266;2022-11-15T05:16:18;80.88;;;30.85;;
58878;SDS011;44660;42.664;23.266;2022-11-15T05:18:43;81.43;;;31.40;;
58878;SDS011;44660;42.664;23.266;2022-11-15T05:21:10;77.35;;;32.47;;
58878;SDS011;44660;42.664;23.266;2022-11-15T05:23:36;83.65;;;32.58;;
58878;SDS011;44660;42.664;23.266;2022-11-15T05:26:02;74.47;;;30.73;;
58878;SDS011;44660;42.664;23.266;2022-11-15T05:28:29;85.13;;;32.08;;
58878;SDS011;44660;42.664;23.266;2022-11-15T05:31:04;77.35;;;31.02;;
58878;SDS011;44660;42.664;23.266;2022-11-15T05:33:35;85.07;;;29.27;;
58878;SDS011;44660;42.664;23.266;2022-11-15T05:36:04;86.30;;;30.52;;
58878;SDS011;44660;42.664;23.266;2022-11-15T05:38:34;83.18;;;29.95;;
58878;SDS011;44660;42.664;23.266;2022-11-15T05:41:00;86.07;;;32.47;;
58878;SDS011;44660;42.664;23.266;2022-11-15T05:43:27;97.20;;;31.65;;
58878;SDS011;44660;42.664;23.266;2022-11-15T05:45:54;89.55;;;30.23;;
58878;SDS011;44660;42.664;23.266;2022-11-15T05:48:20;90.97;;;30.80;;
58878;SDS011;44660;42.664;23.266;2022-11-15T05:50:46;83.50;;;31.35;;
58878;SDS011;44660;42.664;23.266;2022-11-15T05:53:13;89.50;;;32.40;;
58878;SDS011;44660;42.664;23.266;2022-11-15T05:55:41;74.65;;;29.15;;
58878;SDS011;44660;42.664;23.266;2022-11-15T05:58:06;81.60;;;27.98;;
58878;SDS011;44660;42.664;23.266;2022-11-15T06:00:32;71.28;;;27.35;;
58878;SDS011;44660;42.664;23.266;2022-11-15T06:02:57;63.40;;;26.65;;
58878;SDS011;44660;42.664;23.266;2022-11-15T06:05:23;83.25;;;29.70;;
58878;SDS011;44660;42.664;23.266;2022-11-15T06:07:49;81.10;;;28.75;;
58878;SDS011;44660;42.664;23.266;2022-11-15T06:10:14;81.57;;;30.48;;
58878;SDS011;44660;42.664;23.266;2022-11-15T06:12:40;77.70;;;29.48;;
58878;SDS011;44660;42.664;23.266;2022-11-15T06:15:05;103.22;;;39.35;;
58878;SDS011;44660;42.664;23.266;2022-11-15T06:17:31;135.07;;;49.25;;
58878;SDS011;44660;42.664;23.266;2022-11-15T06:19:57;119.03;;;47.30;;
58878;SDS011;44660;42.664;23.266;2022-11-15T06:22:22;100.07;;;36.97;;
58878;SDS011;44660;42.664;23.266;2022-11-15T06:24:48;91.82;;;32.72;;
58878;SDS011;44660;42.664;23.266;2022-11-15T06:27:13;97.45;;;31.80;;
58878;SDS011;44660;42.664;23.266;2022-11-15T06:29:39;82.82;;;31.25;;
58878;SDS011;44660;42.664;23.266;2022-11-15T06:32:05;82.20;;;31.00;;
58878;SDS011;44660;42.664;23.266;2022-11-15T06:34:30;72.93;;;28.73;;
58878;SDS011;44660;42.664;23.266;2022-11-15T06:36:56;79.07;;;28.92;;
58878;SDS011;44660;42.664;23.266;2022-11-15T06:39:21;68.40;;;29.27;;
58878;SDS011;44660;42.664;23.266;2022-11-15T06:41:47;81.68;;;30.88;;
58878;SDS011;44660;42.664;23.266;2022-11-15T06:44:12;86.97;;;29.88;;
58878;SDS011;44660;42.664;23.266;2022-11-15T06:46:39;80.07;;;29.27;;
58878;SDS011;44660;42.664;23.266;2022-11-15T06:49:04;71.53;;;27.25;;
58878;SDS011;44660;42.664;23.266;2022-11-15T06:51:29;73.10;;;28.83;;
58878;SDS011;44660;42.664;23.266;2022-11-15T06:53:55;74.45;;;30.00;;
58878;SDS011;44660;42.664;23.266;2022-11-15T06:56:20;71.00;;;28.90;;
58878;SDS011;44660;42.664;23.266;2022-11-15T06:58:46;67.07;;;28.02;;
58878;SDS011;44660;42.664;23.266;2022-11-15T07:01:11;73.63;;;29.85;;
58878;SDS011;44660;42.664;23.266;2022-11-15T07:03:38;65.88;;;27.92;;
58878;SDS011;44660;42.664;23.266;2022-11-15T07:06:05;77.10;;;28.85;;
58878;SDS011;44660;42.664;23.266;2022-11-15T07:08:32;77.20;;;31.00;;
58878;SDS011;44660;42.664;23.266;2022-11-15T07:10:58;84.97;;;31.45;;
58878;SDS011;44660;42.664;23.266;2022-11-15T07:13:25;82.45;;;31.85;;
58878;SDS011;44660;42.664;23.266;2022-11-15T07:15:52;77.03;;;32.45;;
58878;SDS011;44660;42.664;23.266;2022-11-15T07:18:18;84.45;;;31.52;;
58878;SDS011;44660;42.664;23.266;2022-11-15T07:20:43;87.97;;;32.28;;
58878;SDS011;44660;42.664;23.266;2022-11-15T07:23:09;96.35;;;33.20;;
58878;SDS011;44660;42.664;23.266;2022-11-15T07:25:35;78.60;;;31.70;;
58878;SDS011;44660;42.664;23.266;2022-11-15T07:28:00;88.10;;;34.05;;
58878;SDS011;44660;42.664;23.266;2022-11-15T07:30:26;102.57;;;36.00;;
58878;SDS011;44660;42.664;23.266;2022-11-15T07:32:55;102.03;;;37.10;;
58878;SDS011;44660;42.664;23.266;2022-11-15T07:35:22;100.78;;;36.85;;
58878;SDS011;44660;42.664;23.266;2022-11-15T07:37:54;123.18;;;40.05;;
58878;SDS011;44660;42.664;23.266;2022-11-15T07:40:25;103.57;;;37.30;;
58878;SDS011;44660;42.664;23.266;2022-11-15T07:42:51;103.80;;;36.28;;
58878;SDS011;44660;42.664;23.266;2022-11-15T07:45:21;97.57;;;36.05;;
58878;SDS011;44660;42.664;23.266;2022-11-15T07:47:48;107.45;;;36.90;;
58878;SDS011;44660;42.664;23.266;2022-11-15T07:50:25;97.38;;;36.90;;
58878;SDS011;44660;42.664;23.266;2022-11-15T07:52:58;101.10;;;37.13;;
58878;SDS011;44660;42.664;23.266;2022-11-15T07:55:25;148.25;;;56.85;;
58878;SDS011;44660;42.664;23.266;2022-11-15T07:57:53;139.68;;;55.33;;
58878;SDS011;44660;42.664;23.266;2022-11-15T08:00:24;144.80;;;60.05;;
58878;SDS011;44660;42.664;23.266;2022-11-15T08:02:50;106.53;;;40.65;;
58878;SDS011;44660;42.664;23.266;2022-11-15T08:05:15;108.70;;;41.78;;
58878;SDS011;44660;42.664;23.266;2022-11-15T08:07:41;99.90;;;38.03;;
58878;SDS011;44660;42.664;23.266;2022-11-15T08:10:06;106.97;;;38.08;;
58878;SDS011;44660;42.664;23.266;2022-11-15T08:12:32;89.38;;;37.22;;
58878;SDS011;44660;42.664;23.266;2022-11-15T08:14:58;99.28;;;38.72;;
58878;SDS011;44660;42.664;23.266;2022-11-15T08:17:24;94.70;;;36.72;;
58878;SDS011;44660;42.664;23.266;2022-11-15T08:19:49;89.00;;;34.72;;
58878;SDS011;44660;42.664;23.266;2022-11-15T08:22:17;79.82;;;35.03;;
58878;SDS011;44660;42.664;23.266;2022-11-15T08:24:43;77.90;;;32.45;;
58878;SDS011;44660;42.664;23.266;2022-11-15T08:27:09;84.03;;;32.45;;
58878;SDS011;44660;42.664;23.266;2022-11-15T08:29:42;85.80;;;32.28;;
58878;SDS011;44660;42.664;23.266;2022-11-15T08:32:09;80.20;;;33.85;;
58878;SDS011;44660;42.664;23.266;2022-11-15T08:34:35;87.93;;;34.70;;
58878;SDS011;44660;42.664;23.266;2022-11-15T08:37:02;90.47;;;34.47;;
58878;SDS011;44660;42.664;23.266;2022-11-15T08:39:27;91.07;;;35.20;;
58878;SDS011;44660;42.664;23.266;2022-11-15T08:41:53;93.95;;;36.53;;
58878;SDS011;44660;42.664;23.266;2022-11-15T08:44:18;89.78;;;37.28;;
58878;SDS011;44660;42.664;23.266;2022-11-15T08:46:47;91.20;;;36.22;;
58878;SDS011;44660;42.664;23.266;2022-11-15T08:49:13;90.82;;;36.90;;
58878;SDS011;44660;42.664;23.266;2022-11-15T08:51:38;93.65;;;37.67;;
58878;SDS011;44660;42.664;23.266;2022-11-15T08:54:04;107.45;;;41.83;;
58878;SDS011;44660;42.664;23.266;2022-11-15T08:56:30;117.72;;;43.00;;
58878;SDS011;44660;42.664;23.266;2022-11-15T08:58:55;116.13;;;42.92;;
58878;SDS011;44660;42.664;23.266;2022-11-15T09:01:21;122.38;;;45.53;;
58878;SDS011;44660;42.664;23.266;2022-11-15T09:03:47;129.70;;;47.35;;
58878;SDS011;44660;42.664;23.266;2022-11-15T09:06:13;138.15;;;50.58;;
58878;SDS011;44660;42.664;23.266;2022-11-15T09:08:39;134.73;;;48.75;;
58878;SDS011;44660;42.664;23.266;2022-11-15T09:11:06;138.82;;;50.50;;
58878;SDS011;44660;42.664;23.266;2022-11-15T09:13:32;141.20;;;48.83;;
58878;SDS011;44660;42.664;23.266;2022-11-15T09:15:59;149.82;;;50.35;;
58878;SDS011;44660;42.664;23.266;2022-11-15T09:18:25;145.88;;;51.40;;
58878;SDS011;44660;42.664;23.266;2022-11-15T09:20:54;142.98;;;51.25;;
58878;SDS011;44660;42.664;23.266;2022-11-15T09:23:24;155.05;;;53.63;;
58878;SDS011;44660;42.664;23.266;2022-11-15T09:25:50;146.00;;;52.72;;
58878;SDS011;44660;42.664;23.266;2022-11-15T09:28:16;141.25;;;52.58;;
58878;SDS011;44660;42.664;23.266;2022-11-15T09:30:41;163.75;;;54.22;;
58878;SDS011;44660;42.664;23.266;2022-11-15T09:33:07;156.93;;;54.95;;
58878;SDS011;44660;42.664;23.266;2022-11-15T09:35:34;158.38;;;55.05;;
58878;SDS011;44660;42.664;23.266;2022-11-15T09:37:59;151.40;;;54.97;;
58878;SDS011;44660;42.664;23.266;2022-11-15T09:40:25;151.98;;;55.72;;
58878;SDS011;44660;42.664;23.266;2022-11-15T09:48:50;149.02;;;54.90;;
58878;SDS011;44660;42.664;23.266;2022-11-15T09:51:52;152.65;;;55.13;;
58878;SDS011;44660;42.664;23.266;2022-11-15T09:54:31;143.15;;;56.15;;
58878;SDS011;44660;42.664;23.266;2022-11-15T09:59:44;140.20;;;54.20;;
58878;SDS011;44660;42.664;23.266;2022-11-15T10:05:35;130.10;;;52.92;;
58878;SDS011;44660;42.664;23.266;2022-11-15T10:10:49;131.45;;;52.95;;
58878;SDS011;44660;42.664;23.266;2022-11-15T10:13:22;142.88;;;55.05;;
58878;SDS011;44660;42.664;23.266;2022-11-15T10:15:50;130.13;;;53.00;;
58878;SDS011;44660;42.664;23.266;2022-11-15T10:18:21;125.68;;;52.75;;
58878;SDS011;44660;42.664;23.266;2022-11-15T10:21:02;134.35;;;55.53;;
58878;SDS011;44660;42.664;23.266;2022-11-15T10:23:40;124.75;;;52.08;;
58878;SDS011;44660;42.664;23.266;2022-11-15T10:26:08;126.75;;;54.92;;
58878;SDS011;44660;42.664;23.266;2022-11-15T10:28:38;129.13;;;55.17;;
58878;SDS011;44660;42.664;23.266;2022-11-15T10:31:10;126.22;;;56.05;;
58878;SDS011;44660;42.664;23.266;2022-11-15T10:33:51;121.80;;;54.80;;
58878;SDS011;44660;42.664;23.266;2022-11-15T10:36:24;122.63;;;53.83;;
58878;SDS011;44660;42.664;23.266;2022-11-15T10:41:19;119.55;;;53.63;;
58878;SDS011;44660;42.664;23.266;2022-11-15T10:46:42;131.05;;;54.03;;
58878;SDS011;44660;42.664;23.266;2022-11-15T10:52:18;115.00;;;50.33;;
58878;SDS011;44660;42.664;23.266;2022-11-15T10:54:48;118.40;;;54.33;;
58878;SDS011;44660;42.664;23.266;2022-11-15T10:57:19;128.18;;;52.88;;
58878;SDS011;44660;42.664;23.266;2022-11-15T10:59:54;136.77;;;56.03;;
58878;SDS011;44660;42.664;23.266;2022-11-15T11:10:36;125.32;;;53.17;;
58878;SDS011;44660;42.664;23.266;2022-11-15T11:13:20;118.28;;;53.70;;
58878;SDS011;44660;42.664;23.266;2022-11-15T11:15:46;119.20;;;54.83;;
58878;SDS011;44660;42.664;23.266;2022-11-15T11:18:22;138.23;;;55.53;;
58878;SDS011;44660;42.664;23.266;2022-11-15T11:21:01;126.80;;;54.53;;
58878;SDS011;44660;42.664;23.266;2022-11-15T11:23:51;125.82;;;56.10;;
58878;SDS011;44660;42.664;23.266;2022-11-15T11:28:50;117.47;;;54.35;;
58878;SDS011;44660;42.664;23.266;2022-11-15T11:31:36;118.55;;;53.70;;
58878;SDS011;44660;42.664;23.266;2022-11-15T11:34:13;123.28;;;54.60;;
58878;SDS011;44660;42.664;23.266;2022-11-15T11:47:39;115.53;;;49.75;;
58878;SDS011;44660;42.664;23.266;2022-11-15T11:50:15;117.55;;;49.85;;
58878;SDS011;44660;42.664;23.266;2022-11-15T11:53:34;108.20;;;48.47;;
58878;SDS011;44660;42.664;23.266;2022-11-15T11:55:47;110.55;;;50.05;;
58878;SDS011;44660;42.664;23.266;2022-11-15T11:58:18;104.78;;;47.83;;
58878;SDS011;44660;42.664;23.266;2022-11-15T12:04:19;115.72;;;50.08;;
58878;SDS011;44660;42.664;23.266;2022-11-15T12:06:45;101.07;;;48.13;;
58878;SDS011;44660;42.664;23.266;2022-11-15T12:14:51;97.05;;;49.78;;
58878;SDS011;44660;42.664;23.266;2022-11-15T12:17:25;96.15;;;46.58;;
58878;SDS011;44660;42.664;23.266;2022-11-15T12:19:56;93.30;;;47.92;;
58878;SDS011;44660;42.664;23.266;2022-11-15T12:22:35;97.63;;;48.00;;
58878;SDS011;44660;42.664;23.266;2022-11-15T12:25:08;100.00;;;49.17;;
58878;SDS011;44660;42.664;23.266;2022-11-15T12:30:46;99.60;;;49.67;;
58878;SDS011;44660;42.664;23.266;2022-11-15T12:36:11;98.97;;;50.88;;
58878;SDS011;44660;42.664;23.266;2022-11-15T12:38:56;103.93;;;50.83;;
58878;SDS011;44660;42.664;23.266;2022-11-15T12:41:27;106.22;;;52.28;;
58878;SDS011;44660;42.664;23.266;2022-11-15T12:43:56;103.43;;;52.03;;
58878;SDS011;44660;42.664;23.266;2022-11-15T12:52:10;99.25;;;50.17;;
58878;SDS011;44660;42.664;23.266;2022-11-15T13:06:02;105.97;;;52.38;;
58878;SDS011;44660;42.664;23.266;2022-11-15T13:08:00;102.45;;;51.33;;
58878;SDS011;44660;42.664;23.266;2022-11-15T13:12:53;96.25;;;49.20;;
58878;SDS011;44660;42.664;23.266;2022-11-15T13:17:56;101.15;;;49.55;;
58878;SDS011;44660;42.664;23.266;2022-11-15T13:28:10;95.32;;;48.65;;
58878;SDS011;44660;42.664;23.266;2022-11-15T13:33:25;94.65;;;48.65;;
58878;SDS011;44660;42.664;23.266;2022-11-15T13:36:00;101.50;;;49.17;;
58878;SDS011;44660;42.664;23.266;2022-11-15T13:38:29;100.75;;;48.22;;
58878;SDS011;44660;42.664;23.266;2022-11-15T13:40:57;90.78;;;47.88;;
58878;SDS011;44660;42.664;23.266;2022-11-15T13:43:26;96.20;;;48.33;;
58878;SDS011;44660;42.664;23.266;2022-11-15T13:46:11;101.22;;;47.42;;
58878;SDS011;44660;42.664;23.266;2022-11-15T13:49:07;90.40;;;46.63;;
58878;SDS011;44660;42.664;23.266;2022-11-15T13:54:28;95.78;;;49.22;;
58878;SDS011;44660;42.664;23.266;2022-11-15T13:56:57;95.40;;;49.17;;
58878;SDS011;44660;42.664;23.266;2022-11-15T13:59:28;94.40;;;48.53;;
58878;SDS011;44660;42.664;23.266;2022-11-15T14:01:56;101.90;;;48.85;;
58878;SDS011;44660;42.664;23.266;2022-11-15T14:04:26;97.38;;;49.03;;
58878;SDS011;44660;42.664;23.266;2022-11-15T14:06:58;96.80;;;48.67;;
58878;SDS011;44660;42.664;23.266;2022-11-15T14:11:59;97.97;;;49.25;;
58878;SDS011;44660;42.664;23.266;2022-11-15T14:14:26;103.80;;;49.90;;
58878;SDS011;44660;42.664;23.266;2022-11-15T14:16:57;96.15;;;49.45;;
58878;SDS011;44660;42.664;23.266;2022-11-15T14:24:33;102.32;;;51.55;;
58878;SDS011;44660;42.664;23.266;2022-11-15T14:29:44;106.57;;;51.45;;
58878;SDS011;44660;42.664;23.266;2022-11-15T14:34:43;105.53;;;53.30;;
58878;SDS011;44660;42.664;23.266;2022-11-15T14:37:14;109.05;;;55.00;;
58878;SDS011;44660;42.664;23.266;2022-11-15T14:39:46;117.50;;;54.28;;
58878;SDS011;44660;42.664;23.266;2022-11-15T14:42:12;138.70;;;69.35;;
58878;SDS011;44660;42.664;23.266;2022-11-15T14:44:37;130.98;;;68.00;;
58878;SDS011;44660;42.664;23.266;2022-11-15T14:47:03;137.90;;;72.13;;
58878;SDS011;44660;42.664;23.266;2022-11-15T14:49:28;135.10;;;71.40;;
58878;SDS011;44660;42.664;23.266;2022-11-15T14:51:54;125.43;;;63.28;;
58878;SDS011;44660;42.664;23.266;2022-11-15T14:54:19;119.43;;;57.83;;
58878;SDS011;44660;42.664;23.266;2022-11-15T14:56:45;120.05;;;58.45;;
58878;SDS011;44660;42.664;23.266;2022-11-15T14:59:10;120.88;;;55.67;;
58878;SDS011;44660;42.664;23.266;2022-11-15T15:01:36;118.20;;;57.25;;
58878;SDS011;44660;42.664;23.266;2022-11-15T15:04:01;110.97;;;56.08;;
58878;SDS011;44660;42.664;23.266;2022-11-15T15:06:26;105.40;;;51.35;;
58878;SDS011;44660;42.664;23.266;2022-11-15T15:08:52;102.30;;;49.40;;
58878;SDS011;44660;42.664;23.266;2022-11-15T15:11:21;104.47;;;46.05;;
58878;SDS011;44660;42.664;23.266;2022-11-15T15:13:49;97.85;;;45.55;;
58878;SDS011;44660;42.664;23.266;2022-11-15T15:16:14;87.82;;;43.50;;
58878;SDS011;44660;42.664;23.266;2022-11-15T15:18:40;115.88;;;56.40;;
58878;SDS011;44660;42.664;23.266;2022-11-15T15:21:15;120.22;;;61.17;;
58878;SDS011;44660;42.664;23.266;2022-11-15T15:23:46;126.63;;;63.03;;
58878;SDS011;44660;42.664;23.266;2022-11-15T15:26:12;109.65;;;51.60;;
58878;SDS011;44660;42.664;23.266;2022-11-15T15:28:37;100.78;;;47.88;;
58878;SDS011;44660;42.664;23.266;2022-11-15T15:31:04;93.90;;;45.58;;
58878;SDS011;44660;42.664;23.266;2022-11-15T15:33:30;92.50;;;45.75;;
58878;SDS011;44660;42.664;23.266;2022-11-15T15:35:56;102.72;;;46.92;;
58878;SDS011;44660;42.664;23.266;2022-11-15T15:38:22;91.18;;;46.13;;
58878;SDS011;44660;42.664;23.266;2022-11-15T15:40:47;96.80;;;48.28;;
58878;SDS011;44660;42.664;23.266;2022-11-15T15:43:13;103.13;;;48.67;;
58878;SDS011;44660;42.664;23.266;2022-11-15T15:45:39;103.85;;;49.33;;
58878;SDS011;44660;42.664;23.266;2022-11-15T15:48:09;100.75;;;48.95;;
58878;SDS011;44660;42.664;23.266;2022-11-15T15:50:38;110.50;;;50.08;;
58878;SDS011;44660;42.664;23.266;2022-11-15T15:53:04;139.05;;;60.95;;
58878;SDS011;44660;42.664;23.266;2022-11-15T15:55:30;160.75;;;71.82;;
58878;SDS011;44660;42.664;23.266;2022-11-15T15:57:56;142.32;;;64.15;;
58878;SDS011;44660;42.664;23.266;2022-11-15T16:00:22;138.57;;;61.08;;
58878;SDS011;44660;42.664;23.266;2022-11-15T16:02:50;162.75;;;72.25;;
58878;SDS011;44660;42.664;23.266;2022-11-15T16:05:17;185.48;;;77.90;;
58878;SDS011;44660;42.664;23.266;2022-11-15T16:07:42;162.60;;;76.78;;
58878;SDS011;44660;42.664;23.266;2022-11-15T16:12:40;171.32;;;79.72;;
58878;SDS011;44660;42.664;23.266;2022-11-15T16:15:05;167.55;;;73.80;;
58878;SDS011;44660;42.664;23.266;2022-11-15T16:17:33;171.82;;;75.55;;
58878;SDS011;44660;42.664;23.266;2022-11-15T16:20:02;162.77;;;74.00;;
58878;SDS011;44660;42.664;23.266;2022-11-15T16:22:28;163.55;;;76.20;;
58878;SDS011;44660;42.664;23.266;2022-11-15T16:24:54;166.73;;;75.53;;
58878;SDS011;44660;42.664;23.266;2022-11-15T16:27:20;179.32;;;78.28;;
58878;SDS011;44660;42.664;23.266;2022-11-15T16:29:46;170.40;;;79.60;;